Time;durP1;ratioP1;P1;durP2;ratioP2;P2;SDS_P1;SDS_P2;PMS_P1;PMS_P2;Temp;Humidity;BMP_temperature;BMP_pressure;BME280_temperature;BME280_humidity;BME280_pressure;Samples;Min_cycle;Max_cycle;Signal;HPM_P1;HPM_P2
2023/05/02 00:01:48;;;;;;;;;;;;;;;15.54;72.59;101769.59;7360105;19;20034;-64
2023/05/02 00:04:15;;;;;;;;;;;;;;;15.52;72.71;101776.88;7361229;19;19923;-64
2023/05/02 00:06:45;;;;;;;;;;;;;;;15.52;72.60;101774.22;7358996;19;19915;-64
2023/05/02 00:09:12;;;;;;;;;;;;;;;15.48;72.95;101779.97;7361360;19;20657;-65
2023/05/02 00:11:39;;;;;;;;;;;;;;;15.46;73.08;101780.13;7361662;19;19951;-65
2023/05/02 00:14:06;;;;;;;;;;;;;;;15.46;73.32;101781.94;7360620;19;19919;-65
2023/05/02 00:16:33;;;;;;;;;;;;;;;15.46;72.91;101777.47;7360367;19;19970;-65
2023/05/02 00:19:00;;;;;;;;;;;;;;;15.43;72.89;101780.47;7363284;19;19918;-65
2023/05/02 00:21:28;;;;;;;;;;;;;;;15.41;73.41;101787.72;7360493;19;19944;-64
2023/05/02 00:23:55;;;;;;;;;;;;;;;15.37;73.98;101789.06;7360550;19;19923;-65
2023/05/02 00:26:23;;;;;;;;;;;;;;;15.36;73.93;101782.06;7361098;19;19933;-64
2023/05/02 00:28:52;;;;;;;;;;;;;;;15.34;74.05;101776.09;7363221;19;20462;-64
2023/05/02 00:31:18;;;;;;;;;;;;;;;15.34;73.78;101776.09;7357133;19;19921;-64
2023/05/02 00:33:45;;;;;;;;;;;;;;;15.29;74.12;101776.56;7362434;19;19967;-66
2023/05/02 00:36:13;;;;;;;;;;;;;;;15.27;74.33;101791.84;7361475;19;19915;-65
2023/05/02 00:38:40;;;;;;;;;;;;;;;15.24;74.56;101784.19;7361868;19;19914;-65
2023/05/02 00:41:07;;;;;;;;;;;;;;;15.20;75.06;101782.84;7362405;19;19940;-65
2023/05/02 00:43:35;;;;;;;;;;;;;;;15.15;75.67;101779.84;7359293;19;19961;-65
2023/05/02 00:46:02;;;;;;;;;;;;;;;15.09;76.12;101787.59;7355241;19;19954;-65
2023/05/02 00:48:29;;;;;;;;;;;;;;;15.05;76.42;101786.25;7359659;19;19923;-65
2023/05/02 00:50:56;;;;;;;;;;;;;;;14.97;77.38;101787.06;7359054;19;21816;-65
2023/05/02 00:53:23;;;;;;;;;;;;;;;14.93;77.72;101793.66;7360625;19;20329;-65
2023/05/02 00:55:50;;;;;;;;;;;;;;;14.89;77.94;101792.28;7362095;19;19919;-65
2023/05/02 00:58:18;;;;;;;;;;;;;;;14.83;78.17;101779.69;7362433;19;19933;-65
2023/05/02 01:00:53;;;;;;;;;;;;;;;14.77;78.23;101789.09;7357615;19;20430;-65
2023/05/02 01:03:34;;;;;;;;;;;;;;;14.72;78.85;101793.19;7359869;19;20329;-66
2023/05/02 01:06:08;;;;;;;;;;;;;;;14.66;78.92;101797.28;7357322;19;20381;-65
2023/05/02 01:08:39;;;;;;;;;;;;;;;14.61;79.49;101796.94;7361386;19;19919;-64
2023/05/02 01:11:15;;;;;;;;;;;;;;;14.59;79.84;101798.88;7361938;19;19943;-66
2023/05/02 01:13:44;;;;;;;;;;;;;;;14.56;79.77;101807.16;7359128;19;19951;-65
2023/05/02 01:16:13;;;;;;;;;;;;;;;14.55;79.67;101813.44;7358532;19;19926;-65
2023/05/02 01:18:41;;;;;;;;;;;;;;;14.49;80.36;101808.75;7363030;19;20319;-64
2023/05/02 01:21:09;;;;;;;;;;;;;;;14.46;80.26;101819.66;7359835;19;19918;-65
2023/05/02 01:23:40;;;;;;;;;;;;;;;14.43;80.17;101812.84;7360634;19;19919;-64
2023/05/02 01:26:07;;;;;;;;;;;;;;;14.39;80.67;101810.66;7358186;19;21280;-65
2023/05/02 01:28:43;;;;;;;;;;;;;;;14.34;80.57;101816.38;7360561;19;19930;-65
2023/05/02 01:31:11;;;;;;;;;;;;;;;14.27;80.91;101811.84;7354200;19;19914;-65
2023/05/02 01:33:39;;;;;;;;;;;;;;;14.24;80.99;101820.09;7360100;19;19933;-65
2023/05/02 01:36:07;;;;;;;;;;;;;;;14.21;80.97;101828.34;7358190;19;19929;-65
2023/05/02 01:38:35;;;;;;;;;;;;;;;14.16;80.72;101826.16;7359836;19;20521;-65
2023/05/02 01:41:04;;;;;;;;;;;;;;;14.10;81.48;101819.66;7358490;19;20067;-65
2023/05/02 01:43:31;;;;;;;;;;;;;;;14.05;81.44;101823.72;7360081;19;19926;-65
2023/05/02 01:45:59;;;;;;;;;;;;;;;13.99;81.94;101811.94;7354454;19;20525;-65
2023/05/02 01:48:27;;;;;;;;;;;;;;;13.94;82.40;101822.13;7359643;19;21549;-65
2023/05/02 01:50:56;;;;;;;;;;;;;;;13.88;82.42;101820.06;7354076;19;19919;-65
2023/05/02 01:53:26;;;;;;;;;;;;;;;13.86;82.10;101832.63;7358766;19;19947;-66
2023/05/02 01:55:54;;;;;;;;;;;;;;;13.83;82.61;101829.44;7358926;19;19918;-65
2023/05/02 01:58:24;;;;;;;;;;;;;;;13.78;82.99;101829.06;7358107;19;19926;-65
2023/05/02 02:00:52;;;;;;;;;;;;;;;13.75;83.22;101834.66;7354402;19;19915;-64
2023/05/02 02:03:20;;;;;;;;;;;;;;;13.67;83.24;101838.84;7360412;19;19919;-64
2023/05/02 02:05:48;;;;;;;;;;;;;;;13.65;83.29;101847.94;7357059;19;19919;-64
2023/05/02 02:08:15;;;;;;;;;;;;;;;13.66;83.85;101852.25;7356765;19;19923;-66
2023/05/02 02:10:45;;;;;;;;;;;;;;;13.64;83.78;101848.91;7357279;19;19918;-65
2023/05/02 02:13:15;;;;;;;;;;;;;;;13.63;83.52;101848.06;7359750;19;19926;-66
2023/05/02 02:15:44;;;;;;;;;;;;;;;13.64;83.76;101847.09;7356503;19;21534;-65
2023/05/02 02:18:12;;;;;;;;;;;;;;;13.66;83.54;101852.25;7362038;19;19921;-65
2023/05/02 02:20:41;;;;;;;;;;;;;;;13.62;83.89;101843.75;7364202;19;19921;-65
2023/05/02 02:23:09;;;;;;;;;;;;;;;13.59;85.38;101849.34;7361742;19;19925;-65
2023/05/02 02:25:36;;;;;;;;;;;;;;;13.61;85.87;101855.31;7358721;19;19923;-65
2023/05/02 02:28:03;;;;;;;;;;;;;;;13.58;85.13;101858.25;7366238;19;19914;-65
2023/05/02 02:30:30;;;;;;;;;;;;;;;13.60;84.58;101858.97;7362306;19;19915;-66
2023/05/02 02:32:57;;;;;;;;;;;;;;;13.62;83.93;101867.56;7364255;19;19939;-65
2023/05/02 02:35:31;;;;;;;;;;;;;;;13.60;84.97;101866.91;7366091;19;19921;-66
2023/05/02 02:38:30;;;;;;;;;;;;;;;13.62;85.69;101875.50;7366102;19;21061;-65
2023/05/02 02:41:05;;;;;;;;;;;;;;;13.63;85.64;101884.25;7364335;19;19959;-64
2023/05/02 02:43:39;;;;;;;;;;;;;;;13.63;84.89;101878.97;7362795;19;19918;-64
2023/05/02 02:46:15;;;;;;;;;;;;;;;13.65;84.57;101888.44;7358874;19;19958;-65
2023/05/02 02:48:49;;;;;;;;;;;;;;;13.67;84.28;101889.13;7363069;19;19932;-65
2023/05/02 02:51:24;;;;;;;;;;;;;;;13.69;84.29;101888.97;7364073;19;19922;-65
2023/05/02 02:53:54;;;;;;;;;;;;;;;13.70;83.60;101888.84;7364650;19;21185;-64
2023/05/02 02:56:27;;;;;;;;;;;;;;;13.66;84.22;101895.38;7363909;19;19922;-64
2023/05/02 02:58:55;;;;;;;;;;;;;;;13.69;84.29;101899.56;7365028;19;20316;-65
2023/05/02 03:01:24;;;;;;;;;;;;;;;13.70;83.64;101895.94;7361422;19;19919;-65
2023/05/02 03:03:52;;;;;;;;;;;;;;;13.63;83.66;101905.44;7363759;19;20105;-65
2023/05/02 03:06:19;;;;;;;;;;;;;;;13.59;83.79;101906.69;7362352;19;20023;-65
2023/05/02 03:08:46;;;;;;;;;;;;;;;13.56;84.73;101905.16;7365284;19;19942;-64
2023/05/02 03:11:13;;;;;;;;;;;;;;;13.54;85.28;101903.66;7364651;19;19914;-64
2023/05/02 03:13:40;;;;;;;;;;;;;;;13.49;84.99;101901.44;7362011;19;19918;-64
2023/05/02 03:16:17;;;;;;;;;;;;;;;13.47;84.46;101910.50;7359118;19;19918;-64
2023/05/02 03:18:44;;;;;;;;;;;;;;;13.47;84.84;101913.97;7364409;19;21578;-65
2023/05/02 03:21:11;;;;;;;;;;;;;;;13.48;85.14;101912.16;7361912;19;19923;-64
2023/05/02 03:23:37;;;;;;;;;;;;;;;13.44;84.92;101919.56;7364200;19;19926;-65
2023/05/02 03:26:05;;;;;;;;;;;;;;;13.45;85.68;101917.75;7361011;19;19925;-65
2023/05/02 03:28:32;;;;;;;;;;;;;;;13.45;86.20;101917.75;7362909;19;19951;-65
2023/05/02 03:30:58;;;;;;;;;;;;;;;13.45;85.78;101921.25;7359325;19;19926;-64
2023/05/02 03:33:25;;;;;;;;;;;;;;;13.45;85.46;101926.53;7363576;19;19971;-65
2023/05/02 03:35:52;;;;;;;;;;;;;;;13.44;85.71;101929.31;7361654;19;20491;-65
2023/05/02 03:38:19;;;;;;;;;;;;;;;13.42;85.48;101933.88;7360941;19;19926;-66
2023/05/02 03:40:46;;;;;;;;;;;;;;;13.43;85.56;101932.91;7362541;19;19953;-64
2023/05/02 03:43:13;;;;;;;;;;;;;;;13.41;86.17;101937.53;7362562;19;19937;-66
2023/05/02 03:45:39;;;;;;;;;;;;;;;13.37;86.15;101936.13;7361323;19;20254;-65
2023/05/02 03:48:06;;;;;;;;;;;;;;;13.37;86.08;101936.97;7363364;19;19919;-65
2023/05/02 03:50:33;;;;;;;;;;;;;;;13.34;86.03;101936.44;7357774;19;19978;-65
2023/05/02 03:53:00;;;;;;;;;;;;;;;13.20;86.64;101937.72;7363678;19;19932;-66
2023/05/02 03:55:27;;;;;;;;;;;;;;;13.18;87.46;101942.31;7362770;19;20040;-65
2023/05/02 03:57:54;;;;;;;;;;;;;;;13.17;88.02;101938.81;7363503;19;19922;-65
2023/05/02 04:00:21;;;;;;;;;;;;;;;13.16;88.30;101938.97;7359609;19;20998;-65
2023/05/02 04:02:48;;;;;;;;;;;;;;;13.19;88.01;101938.69;7363488;19;20519;-64
2023/05/02 04:05:15;;;;;;;;;;;;;;;13.23;87.61;101945.34;7360038;19;20317;-65
2023/05/02 04:07:42;;;;;;;;;;;;;;;13.28;87.26;101951.03;7362564;19;19919;-66
2023/05/02 04:10:15;;;;;;;;;;;;;;;13.30;87.11;101962.31;7362613;19;19919;-66
2023/05/02 04:12:42;;;;;;;;;;;;;;;13.28;86.99;101969.56;7362658;19;19923;-65
2023/05/02 04:15:10;;;;;;;;;;;;;;;13.32;87.00;101959.50;7357666;19;19922;-65
2023/05/02 04:17:37;;;;;;;;;;;;;;;13.34;86.58;101965.50;7361281;19;19918;-66
2023/05/02 04:20:05;;;;;;;;;;;;;;;13.34;86.72;101963.69;7361463;19;19923;-65
2023/05/02 04:22:32;;;;;;;;;;;;;;;13.35;87.25;101959.25;7361774;19;20372;-65
2023/05/02 04:24:59;;;;;;;;;;;;;;;13.35;87.62;101952.16;7358516;19;19931;-65
2023/05/02 04:27:27;;;;;;;;;;;;;;;13.38;86.95;101954.50;7361649;19;20253;-65
2023/05/02 04:29:54;;;;;;;;;;;;;;;13.38;86.79;101959.78;7356421;19;19923;-65
2023/05/02 04:32:21;;;;;;;;;;;;;;;13.35;86.52;101967.19;7360415;19;19914;-65
2023/05/02 04:34:48;;;;;;;;;;;;;;;13.32;86.53;101973.56;7362363;19;20479;-64
2023/05/02 04:37:15;;;;;;;;;;;;;;;13.30;87.39;101977.34;7360877;19;20208;-65
2023/05/02 04:39:42;;;;;;;;;;;;;;;13.30;86.69;101975.53;7361698;19;19921;-66
2023/05/02 04:42:09;;;;;;;;;;;;;;;13.31;86.82;101971.91;7358343;19;19982;-65
2023/05/02 04:44:36;;;;;;;;;;;;;;;13.30;87.32;101977.34;7358504;19;19991;-66
2023/05/02 04:47:03;;;;;;;;;;;;;;;13.31;87.21;101981.66;7359465;19;20297;-64
2023/05/02 04:49:31;;;;;;;;;;;;;;;13.25;86.94;101983.91;7356848;19;20688;-65
2023/05/02 04:51:58;;;;;;;;;;;;;;;13.29;86.76;101997.66;7355731;19;19915;-66
2023/05/02 04:54:25;;;;;;;;;;;;;;;13.22;87.21;102000.03;7359298;19;19939;-65
2023/05/02 04:56:52;;;;;;;;;;;;;;;13.21;87.71;102006.28;7358325;19;19914;-64
2023/05/02 04:59:19;;;;;;;;;;;;;;;13.24;88.01;102011.31;7360748;19;20435;-65
2023/05/02 05:01:46;;;;;;;;;;;;;;;13.21;87.11;102014.19;7358058;19;19936;-66
2023/05/02 05:04:13;;;;;;;;;;;;;;;13.19;87.69;102013.53;7360354;19;19959;-65
2023/05/02 05:06:40;;;;;;;;;;;;;;;13.19;87.68;102024.09;7358826;19;19922;-66
2023/05/02 05:09:07;;;;;;;;;;;;;;;13.18;87.39;102018.94;7360285;19;20174;-66
2023/05/02 05:11:34;;;;;;;;;;;;;;;13.17;87.19;102020.75;7360786;19;20242;-65
2023/05/02 05:14:03;;;;;;;;;;;;;;;13.19;87.10;102021.47;7360633;19;19922;-65
2023/05/02 05:16:30;;;;;;;;;;;;;;;13.18;87.65;102029.53;7357460;19;19936;-65
2023/05/02 05:18:57;;;;;;;;;;;;;;;13.15;87.25;102025.38;7361123;19;20320;-64
2023/05/02 05:21:26;;;;;;;;;;;;;;;13.15;87.16;102025.38;7358267;19;19915;-67
2023/05/02 05:23:53;;;;;;;;;;;;;;;13.14;87.13;102034.25;7363767;19;19919;-64
2023/05/02 05:26:20;;;;;;;;;;;;;;;13.12;86.76;102035.34;7358190;19;19915;-65
2023/05/02 05:28:47;;;;;;;;;;;;;;;13.12;86.57;102041.47;7361900;19;20295;-65
2023/05/02 05:31:15;;;;;;;;;;;;;;;13.08;86.46;102045.34;7356510;19;21418;-65
2023/05/02 05:33:42;;;;;;;;;;;;;;;13.04;86.56;102043.97;7359776;19;19926;-65
2023/05/02 05:36:12;;;;;;;;;;;;;;;13.00;86.60;102042.56;7359710;19;19947;-65
2023/05/02 05:38:39;;;;;;;;;;;;;;;13.01;86.43;102046.03;7360299;19;20510;-65
2023/05/02 05:41:06;;;;;;;;;;;;;;;13.01;86.83;102043.38;7359068;19;19923;-65
2023/05/02 05:43:34;;;;;;;;;;;;;;;13.04;86.19;102054.53;7357776;19;20275;-66
2023/05/02 05:46:03;;;;;;;;;;;;;;;13.01;86.53;102056.59;7353634;19;20372;-65
2023/05/02 05:48:30;;;;;;;;;;;;;;;13.06;86.12;102062.28;7359195;19;20455;-65
2023/05/02 05:51:01;;;;;;;;;;;;;;;13.08;85.47;102077.06;7356633;19;19926;-65
2023/05/02 05:53:32;;;;;;;;;;;;;;;12.94;85.78;102074.00;7354918;19;19922;-65
2023/05/02 05:55:58;;;;;;;;;;;;;;;12.83;86.14;102070.50;7359804;19;19923;-66
2023/05/02 05:58:25;;;;;;;;;;;;;;;12.83;86.38;102080.22;7357431;19;20554;-65
2023/05/02 06:00:53;;;;;;;;;;;;;;;12.85;86.61;102086.19;7352975;19;20567;-65
2023/05/02 06:03:20;;;;;;;;;;;;;;;12.85;86.63;102092.31;7362138;19;19925;-65
2023/05/02 06:05:46;;;;;;;;;;;;;;;12.88;86.58;102091.22;7360937;19;20466;-65
2023/05/02 06:08:13;;;;;;;;;;;;;;;12.91;86.47;102093.56;7359104;19;19923;-64
2023/05/02 06:10:40;;;;;;;;;;;;;;;12.94;85.84;102087.19;7361509;19;20341;-65
2023/05/02 06:13:07;;;;;;;;;;;;;;;12.96;85.90;102094.00;7360133;19;19925;-65
2023/05/02 06:15:34;;;;;;;;;;;;;;;12.88;86.25;102101.78;7355743;19;19987;-66
2023/05/02 06:18:01;;;;;;;;;;;;;;;12.94;86.13;102084.56;7357926;19;20631;-65
2023/05/02 06:20:28;;;;;;;;;;;;;;;12.96;86.51;102101.91;7357619;19;19949;-65
2023/05/02 06:22:55;;;;;;;;;;;;;;;12.97;86.45;102102.75;7357445;19;19925;-64
2023/05/02 06:25:22;;;;;;;;;;;;;;;12.91;86.55;102101.50;7355525;19;20004;-65
2023/05/02 06:27:49;;;;;;;;;;;;;;;12.95;86.87;102099.44;7356173;19;20336;-66
2023/05/02 06:30:16;;;;;;;;;;;;;;;13.01;86.62;102109.44;7356112;19;19974;-66
2023/05/02 06:32:43;;;;;;;;;;;;;;;13.06;86.58;102109.84;7356786;19;19923;-67
2023/05/02 06:35:12;;;;;;;;;;;;;;;13.08;86.80;102108.75;7357781;19;20134;-66
2023/05/02 06:37:39;;;;;;;;;;;;;;;13.06;86.50;102113.34;7355154;19;20297;-66
2023/05/02 06:40:06;;;;;;;;;;;;;;;13.14;86.20;102112.69;7358669;19;19951;-64
2023/05/02 06:42:33;;;;;;;;;;;;;;;13.12;85.78;102101.41;7356871;19;19923;-66
2023/05/02 06:45:00;;;;;;;;;;;;;;;13.12;85.61;102099.63;7355432;19;19930;-65
2023/05/02 06:47:27;;;;;;;;;;;;;;;13.10;85.93;102103.34;7353525;19;20623;-66
2023/05/02 06:49:54;;;;;;;;;;;;;;;13.12;86.67;102107.53;7355306;19;20428;-65
2023/05/02 06:52:22;;;;;;;;;;;;;;;13.17;86.72;102105.31;7356595;19;20395;-65
2023/05/02 06:54:49;;;;;;;;;;;;;;;13.23;86.03;102115.34;7355868;19;19923;-65
2023/05/02 06:57:15;;;;;;;;;;;;;;;13.31;85.82;102119.13;7355857;19;19918;-66
2023/05/02 06:59:42;;;;;;;;;;;;;;;13.37;85.20;102113.25;7355500;19;20275;-66
2023/05/02 07:02:10;;;;;;;;;;;;;;;13.55;84.28;102108.97;7355712;19;20341;-66
2023/05/02 07:04:37;;;;;;;;;;;;;;;13.63;83.92;102114.38;7359379;19;19970;-66
2023/05/02 07:07:05;;;;;;;;;;;;;;;13.67;83.70;102119.22;7362382;19;21780;-65
2023/05/02 07:09:32;;;;;;;;;;;;;;;13.73;83.34;102130.22;7365046;19;19960;-65
2023/05/02 07:12:01;;;;;;;;;;;;;;;13.71;82.34;102128.53;7363861;19;19918;-68
2023/05/02 07:14:31;;;;;;;;;;;;;;;13.71;82.41;102133.03;7363257;19;19938;-66
2023/05/02 07:16:58;;;;;;;;;;;;;;;13.73;82.48;102135.50;7363207;19;19918;-66
2023/05/02 07:19:25;;;;;;;;;;;;;;;13.68;82.31;102128.84;7362367;19;20184;-64
2023/05/02 07:21:52;;;;;;;;;;;;;;;13.66;81.85;102132.63;7362792;19;19919;-65
2023/05/02 07:24:19;;;;;;;;;;;;;;;13.62;82.50;102136.50;7363453;19;20233;-65
2023/05/02 07:26:46;;;;;;;;;;;;;;;13.61;82.82;102132.19;7363501;19;19931;-65
2023/05/02 07:29:13;;;;;;;;;;;;;;;13.59;82.72;102137.63;7360443;19;19933;-66
2023/05/02 07:31:40;;;;;;;;;;;;;;;13.60;82.78;102139.31;7364019;19;19931;-66
2023/05/02 07:34:08;;;;;;;;;;;;;;;13.52;82.99;102138.31;7362951;19;19938;-65
2023/05/02 07:36:34;;;;;;;;;;;;;;;13.53;83.38;102143.47;7363394;19;21753;-65
2023/05/02 07:39:02;;;;;;;;;;;;;;;13.53;83.60;102143.47;7364211;19;21678;-66
2023/05/02 07:41:29;;;;;;;;;;;;;;;13.54;83.68;102141.66;7360262;19;19919;-65
2023/05/02 07:43:56;;;;;;;;;;;;;;;13.55;83.77;102146.81;7358164;19;19911;-66
2023/05/02 07:46:23;;;;;;;;;;;;;;;13.54;83.81;102150.44;7359840;19;19930;-66
2023/05/02 07:48:52;;;;;;;;;;;;;;;13.56;83.38;102148.47;7362946;19;19918;-66
2023/05/02 07:51:20;;;;;;;;;;;;;;;13.58;83.73;102149.16;7361249;19;19930;-64
2023/05/02 07:53:53;;;;;;;;;;;;;;;13.59;83.74;102158.78;7362095;19;19941;-65
2023/05/02 07:56:20;;;;;;;;;;;;;;;13.62;83.72;102152.38;7362180;19;19939;-66
2023/05/02 07:58:47;;;;;;;;;;;;;;;13.66;83.29;102149.28;7363136;19;20202;-65
2023/05/02 08:01:14;;;;;;;;;;;;;;;13.67;83.01;102147.50;7360270;19;19915;-66
2023/05/02 08:03:42;;;;;;;;;;;;;;;13.69;82.92;102150.84;7361114;19;19939;-65
2023/05/02 08:06:09;;;;;;;;;;;;;;;13.72;82.94;102153.19;7365192;19;19918;-66
2023/05/02 08:08:36;;;;;;;;;;;;;;;13.72;83.02;102155.84;7359303;19;19922;-66
2023/05/02 08:11:03;;;;;;;;;;;;;;;13.70;83.20;102152.50;7361830;19;20287;-65
2023/05/02 08:13:30;;;;;;;;;;;;;;;13.69;83.92;102156.13;7362277;19;19998;-65
2023/05/02 08:15:57;;;;;;;;;;;;;;;13.71;83.80;102148.91;7356463;19;20639;-66
2023/05/02 08:18:24;;;;;;;;;;;;;;;13.74;83.75;102156.53;7359727;19;19923;-66
2023/05/02 08:20:52;;;;;;;;;;;;;;;13.77;83.49;102150.97;7361138;19;19926;-66
2023/05/02 08:23:19;;;;;;;;;;;;;;;13.78;83.48;102157.94;7361572;19;19935;-66
2023/05/02 08:25:46;;;;;;;;;;;;;;;13.81;83.30;102149.72;7360856;19;19911;-65
2023/05/02 08:28:13;;;;;;;;;;;;;;;13.82;83.22;102167.25;7359914;19;20808;-65
2023/05/02 08:30:40;;;;;;;;;;;;;;;13.88;83.32;102165.84;7359167;19;20386;-66
2023/05/02 08:33:07;;;;;;;;;;;;;;;13.89;83.03;102162.22;7360770;19;20186;-66
2023/05/02 08:35:41;;;;;;;;;;;;;;;13.90;82.26;102166.56;7360764;19;19923;-66
2023/05/02 08:38:09;;;;;;;;;;;;;;;13.92;81.33;102167.22;7358535;19;20261;-66
2023/05/02 08:40:36;;;;;;;;;;;;;;;13.94;80.79;102160.00;7357547;19;20251;-67
2023/05/02 08:43:09;;;;;;;;;;;;;;;14.03;79.51;102162.63;7363544;19;20470;-66
2023/05/02 08:45:40;;;;;;;;;;;;;;;14.06;79.03;102174.75;7358795;19;20499;-64
2023/05/02 08:48:12;;;;;;;;;;;;;;;14.07;78.78;102190.47;7359365;19;20806;-66
2023/05/02 08:50:40;;;;;;;;;;;;;;;14.09;78.50;102187.69;7358904;19;19923;-66
2023/05/02 08:53:08;;;;;;;;;;;;;;;14.12;77.92;102182.94;7359920;19;19919;-67
2023/05/02 08:55:38;;;;;;;;;;;;;;;14.10;78.10;102194.66;7360090;19;19922;-66
2023/05/02 08:58:06;;;;;;;;;;;;;;;14.08;77.78;102186.03;7360819;19;19923;-67
2023/05/02 09:00:38;;;;;;;;;;;;;;;14.08;78.23;102205.38;7356725;19;19919;-65
2023/05/02 09:03:15;;;;;;;;;;;;;;;14.12;78.05;102208.56;7360183;19;19921;-65
2023/05/02 09:05:42;;;;;;;;;;;;;;;14.12;77.71;102211.22;7358788;19;20533;-66
2023/05/02 09:08:09;;;;;;;;;;;;;;;14.13;77.36;102226.13;7357269;19;19918;-65
2023/05/02 09:10:38;;;;;;;;;;;;;;;14.08;77.21;102215.97;7359208;19;19984;-66
2023/05/02 09:13:14;;;;;;;;;;;;;;;14.06;77.31;102217.94;7360168;19;20337;-66
2023/05/02 09:15:59;;;;;;;;;;;;;;;14.09;77.49;102222.94;7358047;19;21561;-67
2023/05/02 09:18:29;;;;;;;;;;;;;;;14.13;77.45;102224.31;7356155;19;19914;-65
2023/05/02 09:20:57;;;;;;;;;;;;;;;14.15;77.50;102229.50;7359507;19;20056;-66
2023/05/02 09:23:33;;;;;;;;;;;;;;;14.15;76.95;102234.78;7358678;19;19915;-65
2023/05/02 09:26:00;;;;;;;;;;;;;;;14.21;76.26;102233.38;7352810;19;20337;-67
2023/05/02 09:28:38;;;;;;;;;;;;;;;14.24;76.24;102233.09;7354769;19;19983;-66
2023/05/02 09:31:06;;;;;;;;;;;;;;;14.28;76.50;102232.66;7354615;19;19922;-65
2023/05/02 09:33:34;;;;;;;;;;;;;;;14.32;76.47;102238.53;7356807;19;19947;-66
2023/05/02 09:36:01;;;;;;;;;;;;;;;14.37;77.43;102231.03;7326636;19;20852;-61
2023/05/02 09:38:29;;;;;;;;;;;;;;;14.40;77.04;102238.66;7346876;19;19918;-61
2023/05/02 09:40:56;;;;;;;;;;;;;;;14.40;76.61;102241.31;7349235;19;20558;-62
2023/05/02 09:43:23;;;;;;;;;;;;;;;14.42;76.01;102247.31;7344830;19;21564;-61
2023/05/02 09:45:58;;;;;;;;;;;;;;;14.43;75.73;102256.91;7345334;19;19918;-63
2023/05/02 09:48:27;;;;;;;;;;;;;;;14.43;75.54;102255.09;7347727;19;19919;-62
2023/05/02 09:50:54;;;;;;;;;;;;;;;14.42;75.53;102256.09;7349476;19;19923;-61
2023/05/02 09:53:23;;;;;;;;;;;;;;;14.44;75.73;102251.47;7349985;19;20602;-62
2023/05/02 09:56:00;;;;;;;;;;;;;;;14.41;74.98;102251.78;7352015;19;19923;-62
2023/05/02 09:58:26;;;;;;;;;;;;;;;14.38;74.30;102253.84;7351031;19;19938;-63
2023/05/02 10:00:54;;;;;;;;;;;;;;;14.39;74.17;102248.44;7344672;19;20021;-63
2023/05/02 10:03:22;;;;;;;;;;;;;;;14.43;74.04;102259.56;7353787;19;19925;-63
2023/05/02 10:05:49;;;;;;;;;;;;;;;14.44;73.35;102250.66;7350478;19;19949;-62
2023/05/02 10:08:17;;;;;;;;;;;;;;;14.48;73.83;102241.44;7349809;19;19915;-60
2023/05/02 10:10:46;;;;;;;;;;;;;;;14.51;73.50;102243.81;7352740;19;20689;-61
2023/05/02 10:13:15;;;;;;;;;;;;;;;14.51;72.39;102244.66;7353444;19;19922;-60
2023/05/02 10:15:43;;;;;;;;;;;;;;;14.55;71.71;102243.38;7347973;19;19927;-62
2023/05/02 10:18:13;;;;;;;;;;;;;;;14.58;71.28;102244.09;7350367;19;21506;-63
2023/05/02 10:20:43;;;;;;;;;;;;;;;14.60;71.65;102250.88;7356648;19;19929;-61
2023/05/02 10:23:11;;;;;;;;;;;;;;;14.64;71.42;102246.97;7353536;19;19925;-62
2023/05/02 10:25:39;;;;;;;;;;;;;;;14.69;71.30;102254.47;7349103;19;19931;-63
2023/05/02 10:28:07;;;;;;;;;;;;;;;14.71;70.83;102265.78;7350005;19;21040;-62
2023/05/02 10:30:34;;;;;;;;;;;;;;;14.74;70.34;102268.13;7351416;19;19910;-61
2023/05/02 10:33:02;;;;;;;;;;;;;;;14.75;69.81;102260.03;7354935;19;19948;-60
2023/05/02 10:35:30;;;;;;;;;;;;;;;14.85;69.30;102263.50;7349231;19;20702;-61
2023/05/02 10:38:00;;;;;;;;;;;;;;;14.90;69.42;102263.06;7352273;19;19926;-61
2023/05/02 10:40:27;;;;;;;;;;;;;;;14.98;69.74;102271.94;7358010;19;19915;-63
2023/05/02 10:42:54;;;;;;;;;;;;;;;15.03;68.28;102273.34;7356261;19;21394;-62
2023/05/02 10:45:30;;;;;;;;;;;;;;;15.03;67.90;102265.41;7354933;19;19911;-61
2023/05/02 10:48:08;;;;;;;;;;;;;;;15.11;67.90;102274.28;7356824;19;20580;-62
2023/05/02 10:50:46;;;;;;;;;;;;;;;15.25;67.06;102284.41;7356748;19;19915;-62
2023/05/02 10:53:23;;;;;;;;;;;;;;;15.35;66.71;102276.38;7360187;19;20016;-61
2023/05/02 10:56:00;;;;;;;;;;;;;;;15.41;66.69;102276.63;7360374;19;21175;-62
2023/05/02 10:58:27;;;;;;;;;;;;;;;15.45;66.11;102289.59;7355865;19;19915;-62
2023/05/02 11:01:14;;;;;;;;;;;;;;;15.51;65.39;102289.00;7354991;19;20001;-62
2023/05/02 11:03:51;;;;;;;;;;;;;;;15.55;65.17;102296.53;7360913;19;19956;-63
2023/05/02 11:06:18;;;;;;;;;;;;;;;15.58;65.24;102296.25;7355276;19;19923;-65
2023/05/02 11:08:46;;;;;;;;;;;;;;;15.58;64.80;102300.72;7355431;19;19948;-62
2023/05/02 11:11:22;;;;;;;;;;;;;;;15.65;64.46;102301.78;7359947;19;19923;-61
2023/05/02 11:13:50;;;;;;;;;;;;;;;15.67;64.02;102302.50;7356523;19;20006;-60
2023/05/02 11:16:17;;;;;;;;;;;;;;;15.73;63.33;102304.53;7351345;19;19926;-62
2023/05/02 11:18:57;;;;;;;;;;;;;;;15.72;62.77;102300.22;7358736;19;20233;-60
2023/05/02 11:21:27;;;;;;;;;;;;;;;15.78;62.44;102299.63;7351849;19;19914;-61
2023/05/02 11:24:04;;;;;;;;;;;;;;;15.84;62.81;102304.34;7355010;19;20041;-62
2023/05/02 11:26:31;;;;;;;;;;;;;;;15.91;62.72;102294.75;7352051;19;19914;-63
2023/05/02 11:28:59;;;;;;;;;;;;;;;16.06;61.60;102290.59;7356612;19;19927;-61
2023/05/02 11:31:26;;;;;;;;;;;;;;;16.21;61.74;102289.06;7352846;19;20694;-60
2023/05/02 11:33:55;;;;;;;;;;;;;;;16.31;61.10;102285.47;7348410;19;20353;-62
2023/05/02 11:36:32;;;;;;;;;;;;;;;16.40;60.32;102277.44;7356594;19;19954;-61
2023/05/02 11:39:02;;;;;;;;;;;;;;;16.45;59.41;102275.16;7354690;19;19925;-61
2023/05/02 11:41:38;;;;;;;;;;;;;;;16.50;59.96;102285.31;7350440;19;20037;-62
2023/05/02 11:44:06;;;;;;;;;;;;;;;16.56;60.37;102282.00;7353849;19;20289;-61
2023/05/02 11:46:35;;;;;;;;;;;;;;;16.64;59.36;102285.63;7355868;19;19986;-62
2023/05/02 11:49:03;;;;;;;;;;;;;;;16.70;59.11;102283.31;7355412;19;19943;-62
2023/05/02 11:51:34;;;;;;;;;;;;;;;16.75;58.73;102297.81;7355882;19;19926;-61
2023/05/02 11:54:02;;;;;;;;;;;;;;;16.74;58.25;102290.81;7355913;19;19935;-61
2023/05/02 11:56:29;;;;;;;;;;;;;;;16.75;57.90;102287.19;7353634;19;19919;-63
2023/05/02 11:58:58;;;;;;;;;;;;;;;16.73;57.93;102296.28;7356432;19;19919;-62
2023/05/02 12:01:26;;;;;;;;;;;;;;;16.81;57.06;102299.81;7351180;19;19907;-62
2023/05/02 12:04:03;;;;;;;;;;;;;;;16.93;57.58;102303.88;7355609;19;19962;-63
2023/05/02 12:06:30;;;;;;;;;;;;;;;17.02;56.94;102313.56;7353619;19;20386;-62
2023/05/02 12:09:16;;;;;;;;;;;;;;;17.08;56.70;102312.94;7354368;19;19922;-62
2023/05/02 12:11:43;;;;;;;;;;;;;;;17.08;55.90;102312.94;7353445;19;19923;-61
2023/05/02 12:14:11;;;;;;;;;;;;;;;17.05;55.67;102307.13;7353395;19;20819;-61
2023/05/02 12:16:40;;;;;;;;;;;;;;;17.03;56.17;102314.41;7352108;19;19926;-62
2023/05/02 12:19:07;;;;;;;;;;;;;;;17.00;55.93;102320.06;7354750;19;19941;-63
2023/05/02 12:21:35;;;;;;;;;;;;;;;17.02;56.92;102313.56;7355186;19;20021;-63
2023/05/02 12:24:02;;;;;;;;;;;;;;;17.08;55.93;102328.06;7357207;19;20250;-62
2023/05/02 12:26:31;;;;;;;;;;;;;;;17.18;56.12;102320.81;7354338;19;20018;-62
2023/05/02 12:29:01;;;;;;;;;;;;;;;17.30;56.39;102321.38;7357611;19;20299;-62
2023/05/02 12:31:30;;;;;;;;;;;;;;;17.39;55.66;102312.41;7355105;19;20275;-62
2023/05/02 12:33:59;;;;;;;;;;;;;;;17.44;55.30;102321.59;7356827;19;20626;-72
2023/05/02 12:36:28;;;;;;;;;;;;;;;17.51;54.35;102321.78;7353180;19;19923;-61
2023/05/02 12:38:58;;;;;;;;;;;;;;;17.49;54.80;102327.25;7355407;19;19923;-61
2023/05/02 12:41:35;;;;;;;;;;;;;;;17.43;54.90;102329.72;7349438;19;19926;-61
2023/05/02 12:44:02;;;;;;;;;;;;;;;17.34;54.60;102331.53;7354699;19;20016;-62